sensor_id;sensor_type;location;lat;lon;timestamp;pressure;altitude;pressure_sealevel;temperature;humidity
77454;BME280;66538;53.150;18.160;2023-11-21T00:01:14;100798.64;;;1.58;100.00
77454;BME280;66538;53.150;18.160;2023-11-21T00:03:41;100795.55;;;1.57;100.00
77454;BME280;66538;53.150;18.160;2023-11-21T00:06:08;100806.00;;;1.57;100.00
77454;BME280;66538;53.150;18.160;2023-11-21T00:08:37;100810.41;;;1.56;100.00
77454;BME280;66538;53.150;18.160;2023-11-21T00:11:04;100815.33;;;1.55;100.00
77454;BME280;66538;53.150;18.160;2023-11-21T00:13:32;100811.15;;;1.54;100.00
77454;BME280;66538;53.150;18.160;2023-11-21T00:15:59;100821.31;;;1.53;100.00
77454;BME280;66538;53.150;18.160;2023-11-21T00:18:25;100829.50;;;1.54;100.00
77454;BME280;66538;53.150;18.160;2023-11-21T00:20:52;100831.97;;;1.53;100.00
77454;BME280;66538;53.150;18.160;2023-11-21T00:23:18;100834.98;;;1.53;100.00
77454;BME280;66538;53.150;18.160;2023-11-21T00:25:45;100832.09;;;1.54;100.00
77454;BME280;66538;53.150;18.160;2023-11-21T00:28:11;100829.63;;;1.52;100.00
77454;BME280;66538;53.150;18.160;2023-11-21T00:30:38;100834.72;;;1.51;100.00
77454;BME280;66538;53.150;18.160;2023-11-21T00:33:05;100837.66;;;1.49;100.00
77454;BME280;66538;53.150;18.160;2023-11-21T00:35:32;100836.17;;;1.45;100.00
77454;BME280;66538;53.150;18.160;2023-11-21T00:37:58;100836.23;;;1.40;100.00
77454;BME280;66538;53.150;18.160;2023-11-21T00:40:25;100840.45;;;1.41;100.00
77454;BME280;66538;53.150;18.160;2023-11-21T00:42:52;100846.77;;;1.39;100.00
77454;BME280;66538;53.150;18.160;2023-11-21T00:45:19;100844.70;;;1.37;100.00
77454;BME280;66538;53.150;18.160;2023-11-21T00:47:45;100851.16;;;1.37;100.00
77454;BME280;66538;53.150;18.160;2023-11-21T00:50:12;100853.75;;;1.35;100.00
77454;BME280;66538;53.150;18.160;2023-11-21T00:52:39;100861.85;;;1.34;100.00
77454;BME280;66538;53.150;18.160;2023-11-21T00:55:05;100862.95;;;1.33;100.00
77454;BME280;66538;53.150;18.160;2023-11-21T00:57:34;100868.39;;;1.32;100.00
77454;BME280;66538;53.150;18.160;2023-11-21T01:00:01;100867.48;;;1.30;100.00
77454;BME280;66538;53.150;18.160;2023-11-21T01:02:33;100867.50;;;1.28;100.00
77454;BME280;66538;53.150;18.160;2023-11-21T01:05:02;100863.66;;;1.27;100.00
77454;BME280;66538;53.150;18.160;2023-11-21T01:07:28;100864.41;;;1.27;100.00
77454;BME280;66538;53.150;18.160;2023-11-21T01:09:55;100867.16;;;1.28;100.00
77454;BME280;66538;53.150;18.160;2023-11-21T01:12:22;100864.73;;;1.27;100.00
77454;BME280;66538;53.150;18.160;2023-11-21T01:14:51;100869.79;;;1.27;100.00
77454;BME280;66538;53.150;18.160;2023-11-21T01:17:18;100872.71;;;1.28;100.00
77454;BME280;66538;53.150;18.160;2023-11-21T01:19:45;100879.05;;;1.27;100.00
77454;BME280;66538;53.150;18.160;2023-11-21T01:22:12;100883.58;;;1.28;100.00
77454;BME280;66538;53.150;18.160;2023-11-21T01:24:39;100880.73;;;1.29;100.00
77454;BME280;66538;53.150;18.160;2023-11-21T01:27:06;100884.03;;;1.31;100.00
77454;BME280;66538;53.150;18.160;2023-11-21T01:29:33;100889.62;;;1.31;100.00
77454;BME280;66538;53.150;18.160;2023-11-21T01:32:02;100893.41;;;1.30;100.00
77454;BME280;66538;53.150;18.160;2023-11-21T01:34:30;100894.27;;;1.32;100.00
77454;BME280;66538;53.150;18.160;2023-11-21T01:36:57;100892.51;;;1.32;100.00
77454;BME280;66538;53.150;18.160;2023-11-21T01:39:25;100892.42;;;1.31;100.00
77454;BME280;66538;53.150;18.160;2023-11-21T01:41:52;100898.05;;;1.32;100.00
77454;BME280;66538;53.150;18.160;2023-11-21T01:44:19;100900.60;;;1.30;100.00
77454;BME280;66538;53.150;18.160;2023-11-21T01:46:46;100899.54;;;1.29;100.00
77454;BME280;66538;53.150;18.160;2023-11-21T01:49:14;100896.70;;;1.29;100.00
77454;BME280;66538;53.150;18.160;2023-11-21T01:51:44;100897.89;;;1.26;100.00
77454;BME280;66538;53.150;18.160;2023-11-21T01:54:13;100902.45;;;1.27;100.00
77454;BME280;66538;53.150;18.160;2023-11-21T01:56:39;100909.36;;;1.28;100.00
77454;BME280;66538;53.150;18.160;2023-11-21T01:59:06;100912.00;;;1.29;100.00
77454;BME280;66538;53.150;18.160;2023-11-21T02:01:33;100909.25;;;1.25;100.00
77454;BME280;66538;53.150;18.160;2023-11-21T02:04:00;100909.61;;;1.22;100.00
77454;BME280;66538;53.150;18.160;2023-11-21T02:06:28;100904.48;;;1.21;100.00
77454;BME280;66538;53.150;18.160;2023-11-21T02:08:57;100900.63;;;1.19;100.00
77454;BME280;66538;53.150;18.160;2023-11-21T02:11:27;100907.09;;;1.19;100.00
77454;BME280;66538;53.150;18.160;2023-11-21T02:13:54;100910.14;;;1.19;100.00
77454;BME280;66538;53.150;18.160;2023-11-21T02:16:20;100911.61;;;1.18;100.00
77454;BME280;66538;53.150;18.160;2023-11-21T02:18:48;100914.00;;;1.15;100.00
77454;BME280;66538;53.150;18.160;2023-11-21T02:21:15;100917.23;;;1.12;100.00
77454;BME280;66538;53.150;18.160;2023-11-21T02:23:41;100917.89;;;1.09;100.00
77454;BME280;66538;53.150;18.160;2023-11-21T02:26:10;100918.75;;;1.08;100.00
77454;BME280;66538;53.150;18.160;2023-11-21T02:28:37;100921.88;;;1.08;100.00
77454;BME280;66538;53.150;18.160;2023-11-21T02:31:05;100923.64;;;1.08;100.00
77454;BME280;66538;53.150;18.160;2023-11-21T02:33:33;100919.37;;;1.08;100.00
77454;BME280;66538;53.150;18.160;2023-11-21T02:36:01;100921.17;;;1.07;100.00
77454;BME280;66538;53.150;18.160;2023-11-21T02:38:28;100926.55;;;1.04;100.00
77454;BME280;66538;53.150;18.160;2023-11-21T02:40:57;100929.80;;;1.02;100.00
77454;BME280;66538;53.150;18.160;2023-11-21T02:43:24;100931.64;;;0.99;100.00
77454;BME280;66538;53.150;18.160;2023-11-21T02:45:51;100932.09;;;0.99;100.00
77454;BME280;66538;53.150;18.160;2023-11-21T02:48:17;100932.75;;;0.98;100.00
77454;BME280;66538;53.150;18.160;2023-11-21T02:50:44;100932.70;;;0.97;100.00
77454;BME280;66538;53.150;18.160;2023-11-21T02:53:11;100938.99;;;0.96;100.00
77454;BME280;66538;53.150;18.160;2023-11-21T02:55:37;100937.14;;;0.96;100.00
77454;BME280;66538;53.150;18.160;2023-11-21T02:58:04;100940.71;;;0.95;100.00
77454;BME280;66538;53.150;18.160;2023-11-21T03:00:30;100940.52;;;0.94;100.00
77454;BME280;66538;53.150;18.160;2023-11-21T03:02:57;100942.89;;;0.93;100.00
77454;BME280;66538;53.150;18.160;2023-11-21T03:05:26;100945.06;;;0.92;100.00
77454;BME280;66538;53.150;18.160;2023-11-21T03:07:52;100950.12;;;0.90;100.00
77454;BME280;66538;53.150;18.160;2023-11-21T03:10:19;100956.70;;;0.89;100.00
77454;BME280;66538;53.150;18.160;2023-11-21T03:12:45;100963.27;;;0.88;100.00
77454;BME280;66538;53.150;18.160;2023-11-21T03:15:12;100964.17;;;0.88;100.00
77454;BME280;66538;53.150;18.160;2023-11-21T03:17:58;100964.98;;;0.88;100.00
77454;BME280;66538;53.150;18.160;2023-11-21T03:20:25;100975.45;;;0.89;100.00
77454;BME280;66538;53.150;18.160;2023-11-21T03:22:52;100976.56;;;0.91;100.00
77454;BME280;66538;53.150;18.160;2023-11-21T03:25:18;100975.24;;;0.90;100.00
77454;BME280;66538;53.150;18.160;2023-11-21T03:27:45;100978.44;;;0.90;100.00
77454;BME280;66538;53.150;18.160;2023-11-21T03:30:11;100979.56;;;0.90;100.00
77454;BME280;66538;53.150;18.160;2023-11-21T03:32:38;100977.41;;;0.89;100.00
77454;BME280;66538;53.150;18.160;2023-11-21T03:35:05;100972.98;;;0.85;100.00
77454;BME280;66538;53.150;18.160;2023-11-21T03:37:32;100982.45;;;0.87;100.00
77454;BME280;66538;53.150;18.160;2023-11-21T03:39:59;100986.96;;;0.84;100.00
77454;BME280;66538;53.150;18.160;2023-11-21T03:42:25;100985.80;;;0.83;100.00
77454;BME280;66538;53.150;18.160;2023-11-21T03:44:53;100983.01;;;0.82;100.00
77454;BME280;66538;53.150;18.160;2023-11-21T03:47:21;100980.81;;;0.78;100.00
77454;BME280;66538;53.150;18.160;2023-11-21T03:49:47;100976.13;;;0.76;100.00
77454;BME280;66538;53.150;18.160;2023-11-21T03:52:16;100974.10;;;0.75;100.00
77454;BME280;66538;53.150;18.160;2023-11-21T03:54:43;100975.27;;;0.76;100.00
77454;BME280;66538;53.150;18.160;2023-11-21T03:57:10;100975.55;;;0.74;100.00
77454;BME280;66538;53.150;18.160;2023-11-21T03:59:40;100975.95;;;0.74;100.00
77454;BME280;66538;53.150;18.160;2023-11-21T04:02:07;100979.39;;;0.72;100.00
77454;BME280;66538;53.150;18.160;2023-11-21T04:04:35;100981.98;;;0.72;100.00
77454;BME280;66538;53.150;18.160;2023-11-21T04:07:02;100987.19;;;0.70;100.00
77454;BME280;66538;53.150;18.160;2023-11-21T04:09:29;100986.11;;;0.69;100.00
77454;BME280;66538;53.150;18.160;2023-11-21T04:11:56;100993.00;;;0.68;100.00
77454;BME280;66538;53.150;18.160;2023-11-21T04:14:23;100993.59;;;0.67;100.00
77454;BME280;66538;53.150;18.160;2023-11-21T04:16:49;100993.37;;;0.65;100.00
77454;BME280;66538;53.150;18.160;2023-11-21T04:19:16;100997.20;;;0.64;100.00
77454;BME280;66538;53.150;18.160;2023-11-21T04:21:43;100998.67;;;0.64;100.00
77454;BME280;66538;53.150;18.160;2023-11-21T04:24:10;101000.23;;;0.64;100.00
77454;BME280;66538;53.150;18.160;2023-11-21T04:26:37;101008.07;;;0.63;100.00
77454;BME280;66538;53.150;18.160;2023-11-21T04:29:04;101009.50;;;0.62;100.00
77454;BME280;66538;53.150;18.160;2023-11-21T04:31:32;101012.70;;;0.60;100.00
77454;BME280;66538;53.150;18.160;2023-11-21T04:33:58;101020.98;;;0.58;100.00
77454;BME280;66538;53.150;18.160;2023-11-21T04:36:25;101024.72;;;0.57;100.00
77454;BME280;66538;53.150;18.160;2023-11-21T04:38:51;101024.75;;;0.57;100.00
77454;BME280;66538;53.150;18.160;2023-11-21T04:41:18;101023.77;;;0.55;100.00
77454;BME280;66538;53.150;18.160;2023-11-21T04:43:45;101023.80;;;0.54;100.00
77454;BME280;66538;53.150;18.160;2023-11-21T04:46:11;101028.55;;;0.52;100.00
77454;BME280;66538;53.150;18.160;2023-11-21T04:48:38;101035.60;;;0.50;100.00
77454;BME280;66538;53.150;18.160;2023-11-21T04:51:05;101037.81;;;0.48;100.00
77454;BME280;66538;53.150;18.160;2023-11-21T04:53:32;101041.41;;;0.45;100.00
77454;BME280;66538;53.150;18.160;2023-11-21T04:55:58;101042.84;;;0.44;100.00
77454;BME280;66538;53.150;18.160;2023-11-21T04:58:25;101048.62;;;0.42;100.00
77454;BME280;66538;53.150;18.160;2023-11-21T05:00:51;101057.98;;;0.42;100.00
77454;BME280;66538;53.150;18.160;2023-11-21T05:03:18;101062.63;;;0.42;100.00
77454;BME280;66538;53.150;18.160;2023-11-21T05:05:45;101062.41;;;0.41;100.00
77454;BME280;66538;53.150;18.160;2023-11-21T05:08:11;101068.05;;;0.43;100.00
77454;BME280;66538;53.150;18.160;2023-11-21T05:10:38;101070.48;;;0.43;100.00
77454;BME280;66538;53.150;18.160;2023-11-21T05:13:05;101074.44;;;0.44;100.00
77454;BME280;66538;53.150;18.160;2023-11-21T05:15:37;101073.00;;;0.44;100.00
77454;BME280;66538;53.150;18.160;2023-11-21T05:18:05;101070.95;;;0.45;100.00
77454;BME280;66538;53.150;18.160;2023-11-21T05:20:31;101068.77;;;0.46;100.00
77454;BME280;66538;53.150;18.160;2023-11-21T05:22:59;101069.50;;;0.44;100.00
77454;BME280;66538;53.150;18.160;2023-11-21T05:25:26;101068.64;;;0.44;100.00
77454;BME280;66538;53.150;18.160;2023-11-21T05:27:52;101068.56;;;0.44;100.00
77454;BME280;66538;53.150;18.160;2023-11-21T05:30:21;101070.09;;;0.45;100.00
77454;BME280;66538;53.150;18.160;2023-11-21T05:32:48;101072.49;;;0.43;100.00
77454;BME280;66538;53.150;18.160;2023-11-21T05:35:16;101079.60;;;0.43;100.00
77454;BME280;66538;53.150;18.160;2023-11-21T05:37:43;101088.56;;;0.44;100.00
77454;BME280;66538;53.150;18.160;2023-11-21T05:40:10;101093.45;;;0.43;100.00
77454;BME280;66538;53.150;18.160;2023-11-21T05:42:37;101098.00;;;0.42;100.00
77454;BME280;66538;53.150;18.160;2023-11-21T05:45:05;101096.68;;;0.42;100.00
77454;BME280;66538;53.150;18.160;2023-11-21T05:47:40;101099.43;;;0.41;100.00
77454;BME280;66538;53.150;18.160;2023-11-21T05:50:10;101106.08;;;0.41;100.00
77454;BME280;66538;53.150;18.160;2023-11-21T05:52:38;101108.11;;;0.42;100.00
77454;BME280;66538;53.150;18.160;2023-11-21T05:55:06;101110.60;;;0.41;100.00
77454;BME280;66538;53.150;18.160;2023-11-21T05:57:34;101111.55;;;0.41;100.00
77454;BME280;66538;53.150;18.160;2023-11-21T06:00:07;101120.22;;;0.41;100.00
77454;BME280;66538;53.150;18.160;2023-11-21T06:02:38;101119.73;;;0.40;100.00
77454;BME280;66538;53.150;18.160;2023-11-21T06:05:07;101118.44;;;0.39;100.00
77454;BME280;66538;53.150;18.160;2023-11-21T06:07:34;101125.27;;;0.40;100.00
77454;BME280;66538;53.150;18.160;2023-11-21T06:10:03;101134.33;;;0.38;100.00
77454;BME280;66538;53.150;18.160;2023-11-21T06:12:32;101138.06;;;0.37;100.00
77454;BME280;66538;53.150;18.160;2023-11-21T06:15:03;101145.37;;;0.37;100.00
77454;BME280;66538;53.150;18.160;2023-11-21T06:17:35;101153.38;;;0.37;100.00
77454;BME280;66538;53.150;18.160;2023-11-21T06:20:03;101156.48;;;0.38;100.00
77454;BME280;66538;53.150;18.160;2023-11-21T06:22:39;101163.29;;;0.39;100.00
77454;BME280;66538;53.150;18.160;2023-11-21T06:25:07;101169.75;;;0.38;100.00
77454;BME280;66538;53.150;18.160;2023-11-21T06:27:38;101168.48;;;0.34;100.00
77454;BME280;66538;53.150;18.160;2023-11-21T06:30:06;101176.55;;;0.34;100.00
77454;BME280;66538;53.150;18.160;2023-11-21T06:32:33;101184.20;;;0.34;100.00
77454;BME280;66538;53.150;18.160;2023-11-21T06:35:01;101186.29;;;0.34;100.00
77454;BME280;66538;53.150;18.160;2023-11-21T06:37:28;101189.60;;;0.35;100.00
77454;BME280;66538;53.150;18.160;2023-11-21T06:39:56;101192.89;;;0.35;100.00
77454;BME280;66538;53.150;18.160;2023-11-21T06:42:26;101194.56;;;0.35;100.00
77454;BME280;66538;53.150;18.160;2023-11-21T06:44:53;101195.79;;;0.35;100.00
77454;BME280;66538;53.150;18.160;2023-11-21T06:47:25;101193.92;;;0.37;100.00
77454;BME280;66538;53.150;18.160;2023-11-21T06:49:52;101197.50;;;0.37;100.00
77454;BME280;66538;53.150;18.160;2023-11-21T06:52:19;101195.94;;;0.37;100.00
77454;BME280;66538;53.150;18.160;2023-11-21T06:54:47;101199.80;;;0.36;100.00
77454;BME280;66538;53.150;18.160;2023-11-21T06:57:14;101203.41;;;0.37;100.00
77454;BME280;66538;53.150;18.160;2023-11-21T06:59:40;101210.98;;;0.37;100.00
77454;BME280;66538;53.150;18.160;2023-11-21T07:02:08;101215.66;;;0.38;100.00
77454;BME280;66538;53.150;18.160;2023-11-21T07:04:36;101220.98;;;0.43;100.00
77454;BME280;66538;53.150;18.160;2023-11-21T07:07:03;101219.95;;;0.47;100.00
77454;BME280;66538;53.150;18.160;2023-11-21T07:09:30;101221.52;;;0.48;100.00
77454;BME280;66538;53.150;18.160;2023-11-21T07:11:57;101223.13;;;0.48;100.00
77454;BME280;66538;53.150;18.160;2023-11-21T07:14:24;101229.10;;;0.49;100.00
77454;BME280;66538;53.150;18.160;2023-11-21T07:16:50;101233.33;;;0.49;100.00
77454;BME280;66538;53.150;18.160;2023-11-21T07:19:19;101236.89;;;0.52;100.00
77454;BME280;66538;53.150;18.160;2023-11-21T07:21:46;101241.02;;;0.53;100.00
77454;BME280;66538;53.150;18.160;2023-11-21T07:24:14;101238.55;;;0.53;100.00
77454;BME280;66538;53.150;18.160;2023-11-21T07:26:40;101238.20;;;0.56;100.00
77454;BME280;66538;53.150;18.160;2023-11-21T07:29:07;101245.00;;;0.57;100.00
77454;BME280;66538;53.150;18.160;2023-11-21T07:31:33;101249.48;;;0.58;100.00
77454;BME280;66538;53.150;18.160;2023-11-21T07:34:02;101252.10;;;0.57;100.00
77454;BME280;66538;53.150;18.160;2023-11-21T07:36:29;101257.56;;;0.56;100.00
77454;BME280;66538;53.150;18.160;2023-11-21T07:38:56;101266.10;;;0.56;100.00
77454;BME280;66538;53.150;18.160;2023-11-21T07:41:22;101267.92;;;0.57;100.00
77454;BME280;66538;53.150;18.160;2023-11-21T07:43:49;101272.90;;;0.58;100.00
77454;BME280;66538;53.150;18.160;2023-11-21T07:46:16;101274.33;;;0.60;100.00
77454;BME280;66538;53.150;18.160;2023-11-21T07:48:43;101266.62;;;0.63;100.00
77454;BME280;66538;53.150;18.160;2023-11-21T07:51:10;101266.73;;;0.69;100.00
77454;BME280;66538;53.150;18.160;2023-11-21T07:53:36;101260.21;;;0.76;100.00
77454;BME280;66538;53.150;18.160;2023-11-21T07:56:07;101263.10;;;0.87;100.00
77454;BME280;66538;53.150;18.160;2023-11-21T07:58:35;101264.46;;;0.93;100.00
77454;BME280;66538;53.150;18.160;2023-11-21T08:01:03;101271.95;;;0.97;100.00
77454;BME280;66538;53.150;18.160;2023-11-21T08:03:30;101270.95;;;0.99;100.00
77454;BME280;66538;53.150;18.160;2023-11-21T08:05:58;101279.29;;;1.02;100.00
77454;BME280;66538;53.150;18.160;2023-11-21T08:08:25;101280.80;;;1.04;100.00
77454;BME280;66538;53.150;18.160;2023-11-21T08:10:53;101281.54;;;1.07;99.98
77454;BME280;66538;53.150;18.160;2023-11-21T08:13:26;101285.63;;;1.08;99.56
77454;BME280;66538;53.150;18.160;2023-11-21T08:15:54;101282.45;;;1.08;99.51
77454;BME280;66538;53.150;18.160;2023-11-21T08:18:21;101283.77;;;1.09;98.71
77454;BME280;66538;53.150;18.160;2023-11-21T08:20:48;101280.17;;;1.07;98.52
77454;BME280;66538;53.150;18.160;2023-11-21T08:23:15;101281.94;;;1.05;98.72
77454;BME280;66538;53.150;18.160;2023-11-21T08:25:43;101285.05;;;1.03;98.50
77454;BME280;66538;53.150;18.160;2023-11-21T08:28:10;101286.38;;;1.00;98.22
77454;BME280;66538;53.150;18.160;2023-11-21T08:30:37;101284.30;;;0.99;98.02
77454;BME280;66538;53.150;18.160;2023-11-21T08:33:04;101288.73;;;0.98;96.65
77454;BME280;66538;53.150;18.160;2023-11-21T08:35:31;101289.93;;;0.98;97.46
77454;BME280;66538;53.150;18.160;2023-11-21T08:37:58;101287.04;;;1.06;98.19
77454;BME280;66538;53.150;18.160;2023-11-21T08:40:24;101290.08;;;1.15;98.38
77454;BME280;66538;53.150;18.160;2023-11-21T08:42:51;101287.80;;;1.25;97.54
77454;BME280;66538;53.150;18.160;2023-11-21T08:45:19;101280.55;;;1.28;96.06
77454;BME280;66538;53.150;18.160;2023-11-21T08:47:46;101284.57;;;1.32;96.22
77454;BME280;66538;53.150;18.160;2023-11-21T08:50:13;101285.48;;;1.34;96.43
77454;BME280;66538;53.150;18.160;2023-11-21T08:52:41;101293.11;;;1.36;97.37
77454;BME280;66538;53.150;18.160;2023-11-21T08:55:08;101289.25;;;1.38;96.83
77454;BME280;66538;53.150;18.160;2023-11-21T08:57:36;101290.34;;;1.41;96.77
77454;BME280;66538;53.150;18.160;2023-11-21T09:00:03;101299.84;;;1.50;96.69
77454;BME280;66538;53.150;18.160;2023-11-21T09:02:34;101305.17;;;1.61;96.38
77454;BME280;66538;53.150;18.160;2023-11-21T09:05:00;101300.63;;;1.71;94.77
77454;BME280;66538;53.150;18.160;2023-11-21T09:07:29;101306.50;;;1.84;95.03
77454;BME280;66538;53.150;18.160;2023-11-21T09:09:56;101307.86;;;1.95;94.46
77454;BME280;66538;53.150;18.160;2023-11-21T09:12:23;101310.55;;;2.06;94.61
77454;BME280;66538;53.150;18.160;2023-11-21T09:14:51;101321.26;;;2.16;94.26
77454;BME280;66538;53.150;18.160;2023-11-21T09:17:17;101317.32;;;2.22;93.83
77454;BME280;66538;53.150;18.160;2023-11-21T09:19:45;101320.92;;;2.24;93.13
77454;BME280;66538;53.150;18.160;2023-11-21T09:22:16;101318.73;;;2.23;92.49
77454;BME280;66538;53.150;18.160;2023-11-21T09:24:43;101318.19;;;2.21;92.54
77454;BME280;66538;53.150;18.160;2023-11-21T09:27:10;101322.23;;;2.21;92.03
77454;BME280;66538;53.150;18.160;2023-11-21T09:29:37;101325.77;;;2.21;91.93
77454;BME280;66538;53.150;18.160;2023-11-21T09:32:07;101329.74;;;2.17;89.16
77454;BME280;66538;53.150;18.160;2023-11-21T09:34:34;101337.54;;;2.09;90.14
77454;BME280;66538;53.150;18.160;2023-11-21T09:37:05;101339.00;;;2.04;90.69
77454;BME280;66538;53.150;18.160;2023-11-21T09:39:33;101341.35;;;1.99;89.18
77454;BME280;66538;53.150;18.160;2023-11-21T09:42:10;101340.73;;;1.99;89.59
77454;BME280;66538;53.150;18.160;2023-11-21T09:45:03;101345.90;;;1.95;89.23
77454;BME280;66538;53.150;18.160;2023-11-21T09:47:35;101350.60;;;1.96;90.89
77454;BME280;66538;53.150;18.160;2023-11-21T09:50:05;101355.35;;;1.98;90.54
77454;BME280;66538;53.150;18.160;2023-11-21T09:52:49;101354.23;;;1.97;89.20
77454;BME280;66538;53.150;18.160;2023-11-21T09:55:21;101352.61;;;1.93;90.48
77454;BME280;66538;53.150;18.160;2023-11-21T09:57:48;101359.76;;;1.95;90.45
77454;BME280;66538;53.150;18.160;2023-11-21T10:00:15;101352.25;;;1.95;91.48
77454;BME280;66538;53.150;18.160;2023-11-21T10:02:44;101349.20;;;1.95;90.60
77454;BME280;66538;53.150;18.160;2023-11-21T10:05:11;101354.44;;;1.95;91.94
77454;BME280;66538;53.150;18.160;2023-11-21T10:07:39;101351.41;;;1.92;90.60
77454;BME280;66538;53.150;18.160;2023-11-21T10:10:08;101353.91;;;1.90;90.97
77454;BME280;66538;53.150;18.160;2023-11-21T10:12:36;101348.52;;;1.84;90.41
77454;BME280;66538;53.150;18.160;2023-11-21T10:15:08;101348.61;;;1.80;90.03
77454;BME280;66538;53.150;18.160;2023-11-21T10:17:39;101350.54;;;1.77;90.97
77454;BME280;66538;53.150;18.160;2023-11-21T10:20:11;101349.73;;;1.75;91.45
77454;BME280;66538;53.150;18.160;2023-11-21T10:22:41;101354.91;;;1.79;91.76
77454;BME280;66538;53.150;18.160;2023-11-21T10:25:09;101351.34;;;1.81;91.54
77454;BME280;66538;53.150;18.160;2023-11-21T10:27:37;101357.27;;;1.82;90.53
77454;BME280;66538;53.150;18.160;2023-11-21T10:30:05;101363.77;;;1.81;89.36
77454;BME280;66538;53.150;18.160;2023-11-21T10:32:32;101368.46;;;1.79;89.28
77454;BME280;66538;53.150;18.160;2023-11-21T10:34:59;101372.74;;;1.81;89.62
77454;BME280;66538;53.150;18.160;2023-11-21T10:37:33;101376.39;;;1.81;89.67
77454;BME280;66538;53.150;18.160;2023-11-21T10:40:00;101375.80;;;1.80;87.84
77454;BME280;66538;53.150;18.160;2023-11-21T10:42:26;101376.31;;;1.77;89.21
77454;BME280;66538;53.150;18.160;2023-11-21T10:44:54;101378.69;;;1.76;89.82
77454;BME280;66538;53.150;18.160;2023-11-21T10:47:21;101377.71;;;1.78;89.95
77454;BME280;66538;53.150;18.160;2023-11-21T10:49:49;101380.51;;;1.83;89.01
77454;BME280;66538;53.150;18.160;2023-11-21T10:52:19;101377.52;;;1.85;89.36
77454;BME280;66538;53.150;18.160;2023-11-21T10:54:46;101379.10;;;1.88;88.89
77454;BME280;66538;53.150;18.160;2023-11-21T10:57:17;101383.77;;;1.89;89.59
77454;BME280;66538;53.150;18.160;2023-11-21T10:59:47;101385.34;;;1.92;89.19
77454;BME280;66538;53.150;18.160;2023-11-21T11:02:23;101384.56;;;1.93;89.21
77454;BME280;66538;53.150;18.160;2023-11-21T11:04:52;101382.15;;;1.89;88.72
77454;BME280;66538;53.150;18.160;2023-11-21T11:07:21;101383.66;;;1.86;89.47
77454;BME280;66538;53.150;18.160;2023-11-21T11:09:54;101384.81;;;1.88;89.53
77454;BME280;66538;53.150;18.160;2023-11-21T11:12:21;101384.18;;;1.90;88.03
77454;BME280;66538;53.150;18.160;2023-11-21T11:14:48;101390.34;;;1.91;87.49
77454;BME280;66538;53.150;18.160;2023-11-21T11:17:15;101394.39;;;1.89;86.99
77454;BME280;66538;53.150;18.160;2023-11-21T11:19:42;101396.14;;;1.86;87.21
77454;BME280;66538;53.150;18.160;2023-11-21T11:22:29;101396.08;;;1.85;87.68
77454;BME280;66538;53.150;18.160;2023-11-21T11:27:54;101401.96;;;1.95;88.98
77454;BME280;66538;53.150;18.160;2023-11-21T11:30:41;101406.27;;;1.99;88.62
77454;BME280;66538;53.150;18.160;2023-11-21T11:33:29;101413.69;;;2.00;88.42
77454;BME280;66538;53.150;18.160;2023-11-21T11:38:50;101417.91;;;2.00;88.10
77454;BME280;66538;53.150;18.160;2023-11-21T11:41:25;101423.70;;;1.99;87.24
77454;BME280;66538;53.150;18.160;2023-11-21T11:43:53;101432.48;;;1.97;87.61
77454;BME280;66538;53.150;18.160;2023-11-21T11:46:20;101436.33;;;1.95;87.10
77454;BME280;66538;53.150;18.160;2023-11-21T11:49:06;101443.40;;;1.95;88.08
77454;BME280;66538;53.150;18.160;2023-11-21T11:51:34;101448.23;;;1.96;88.24
77454;BME280;66538;53.150;18.160;2023-11-21T11:54:02;101449.14;;;1.97;88.88
77454;BME280;66538;53.150;18.160;2023-11-21T11:56:33;101451.16;;;1.97;86.96
77454;BME280;66538;53.150;18.160;2023-11-21T11:59:03;101453.90;;;1.93;87.35
77454;BME280;66538;53.150;18.160;2023-11-21T12:01:32;101453.64;;;1.91;87.43
77454;BME280;66538;53.150;18.160;2023-11-21T12:06:43;101451.88;;;1.88;88.01
77454;BME280;66538;53.150;18.160;2023-11-21T12:09:23;101454.90;;;1.84;87.62
77454;BME280;66538;53.150;18.160;2023-11-21T12:11:50;101455.19;;;1.81;88.20
77454;BME280;66538;53.150;18.160;2023-11-21T12:14:17;101454.02;;;1.77;87.90
77454;BME280;66538;53.150;18.160;2023-11-21T12:16:44;101456.50;;;1.75;88.45
77454;BME280;66538;53.150;18.160;2023-11-21T12:19:12;101454.24;;;1.71;88.47
77454;BME280;66538;53.150;18.160;2023-11-21T12:21:39;101464.13;;;1.65;88.15
77454;BME280;66538;53.150;18.160;2023-11-21T12:24:10;101464.14;;;1.62;88.71
77454;BME280;66538;53.150;18.160;2023-11-21T12:26:40;101464.08;;;1.60;88.69
77454;BME280;66538;53.150;18.160;2023-11-21T12:29:07;101462.05;;;1.59;88.85
77454;BME280;66538;53.150;18.160;2023-11-21T12:31:37;101460.63;;;1.58;88.37
77454;BME280;66538;53.150;18.160;2023-11-21T12:34:04;101456.84;;;1.55;89.39
77454;BME280;66538;53.150;18.160;2023-11-21T12:36:31;101460.48;;;1.55;89.12
77454;BME280;66538;53.150;18.160;2023-11-21T12:38:58;101460.58;;;1.51;87.80
77454;BME280;66538;53.150;18.160;2023-11-21T12:41:25;101460.66;;;1.48;88.44
77454;BME280;66538;53.150;18.160;2023-11-21T12:43:52;101463.36;;;1.46;88.22
77454;BME280;66538;53.150;18.160;2023-11-21T12:46:19;101464.45;;;1.46;88.38
77454;BME280;66538;53.150;18.160;2023-11-21T12:48:47;101464.85;;;1.46;88.50
77454;BME280;66538;53.150;18.160;2023-11-21T12:51:13;101471.25;;;1.49;88.99
77454;BME280;66538;53.150;18.160;2023-11-21T12:53:45;101480.47;;;1.49;89.10
77454;BME280;66538;53.150;18.160;2023-11-21T12:56:13;101485.07;;;1.51;88.96